Time;durP1;ratioP1;P1;durP2;ratioP2;P2;SDS_P1;SDS_P2;PMS_P1;PMS_P2;Temp;Humidity;BMP_temperature;BMP_pressure;BME280_temperature;BME280_humidity;BME280_pressure;Samples;Min_cycle;Max_cycle;Signal;HPM_P1;HPM_P2
2023/04/23 00:00:35;;;;;;;0.47;0.47;;;;;;;14.09;74.00;96726.00;5006731;28;20097;-74
2023/04/23 00:03:08;;;;;;;0.70;0.70;;;;;;;14.10;74.63;96730.31;5011593;28;20037;-73
2023/04/23 00:05:37;;;;;;;0.40;0.40;;;;;;;14.12;76.23;96730.88;5008346;28;20394;-74
2023/04/23 00:08:05;;;;;;;0.60;0.60;;;;;;;14.11;74.75;96739.19;5006108;28;20038;-73
2023/04/23 00:10:33;;;;;;;0.50;0.50;;;;;;;14.13;74.24;96734.38;5006192;28;20089;-74
2023/04/23 00:13:01;;;;;;;0.63;0.63;;;;;;;14.19;74.44;96728.88;5001454;28;20076;-73
2023/04/23 00:15:31;;;;;;;0.47;0.47;;;;;;;14.19;73.00;96723.50;5000829;28;20061;-73
2023/04/23 00:17:58;;;;;;;0.50;0.50;;;;;;;14.22;73.48;96723.00;5000283;28;20050;-74
2023/04/23 00:20:26;;;;;;;0.40;0.40;;;;;;;14.22;73.63;96724.91;5001607;28;20041;-73
2023/04/23 00:22:54;;;;;;;0.50;0.50;;;;;;;14.20;75.68;96722.47;5001956;28;20050;-73
2023/04/23 00:25:21;;;;;;;0.03;0.03;;;;;;;14.28;74.00;96714.03;5008959;28;20425;-73
2023/04/23 00:27:49;;;;;;;0.35;0.35;;;;;;;14.24;75.76;96718.22;5001908;28;20042;-73
2023/04/23 00:30:17;;;;;;;0.40;0.40;;;;;;;14.15;76.09;96718.84;5007494;28;20034;-73
2023/04/23 00:32:47;;;;;;;0.70;0.70;;;;;;;14.13;75.83;96713.72;5007422;28;20038;-73
2023/04/23 00:35:14;;;;;;;0.50;0.50;;;;;;;14.06;75.72;96706.88;5004336;28;20052;-73
2023/04/23 00:37:43;;;;;;;0.65;0.65;;;;;;;14.34;74.86;96712.22;5002320;28;20155;-76
2023/04/23 00:40:11;;;;;;;0.50;0.50;;;;;;;14.06;77.01;96699.63;5010062;28;20041;-73
2023/04/23 00:42:39;;;;;;;0.52;0.52;;;;;;;14.05;76.76;96702.53;5001992;28;20045;-74
2023/04/23 00:45:08;;;;;;;0.50;0.50;;;;;;;14.00;76.55;96700.59;5006337;28;20041;-72
2023/04/23 00:47:36;;;;;;;0.93;0.93;;;;;;;13.96;76.11;96694.06;5012242;28;20037;-73
2023/04/23 00:50:06;;;;;;;0.10;0.10;;;;;;;13.82;76.60;96692.69;5008871;28;20465;-75
2023/04/23 00:52:34;;;;;;;0.47;0.47;;;;;;;13.87;76.03;96692.81;5013926;28;20596;-73
2023/04/23 00:55:02;;;;;;;0.50;0.50;;;;;;;13.92;74.80;96690.22;5011729;28;20049;-75
2023/04/23 00:57:30;;;;;;;0.52;0.52;;;;;;;13.98;74.18;96691.16;5007629;28;20100;-75
2023/04/23 00:59:58;;;;;;;0.50;0.50;;;;;;;14.00;74.27;96684.50;5006614;28;20050;-73
2023/04/23 01:02:27;;;;;;;0.40;0.40;;;;;;;14.03;73.67;96686.69;5009589;28;20508;-73
2023/04/23 01:04:55;;;;;;;0.55;0.55;;;;;;;13.92;75.47;96680.28;5011266;28;20093;-73
2023/04/23 01:07:25;;;;;;;0.60;0.60;;;;;;;13.90;74.49;96670.88;5009889;28;20038;-72
2023/04/23 01:09:52;;;;;;;0.63;0.63;;;;;;;13.90;75.69;96660.97;5009121;28;20058;-74
2023/04/23 01:12:20;;;;;;;0.50;0.50;;;;;;;13.85;74.64;96654.66;5004435;28;20049;-73
2023/04/23 01:14:47;;;;;;;0.55;0.55;;;;;;;13.83;75.48;96652.22;5002181;28;20100;-73
2023/04/23 01:17:15;;;;;;;0.50;0.50;;;;;;;13.91;76.41;96659.09;4999383;28;20093;-73
2023/04/23 01:19:42;;;;;;;0.40;0.40;;;;;;;13.93;76.40;96655.09;5003511;28;20409;-73
2023/04/23 01:22:12;;;;;;;0.50;0.50;;;;;;;14.10;74.16;96657.84;4994851;28;20540;-73
2023/04/23 01:24:41;;;;;;;0.50;0.50;;;;;;;14.04;74.78;96663.34;5010293;28;20050;-73
2023/04/23 01:27:10;;;;;;;0.50;0.50;;;;;;;13.96;74.88;96660.00;5008272;28;20476;-74
2023/04/23 01:29:38;;;;;;;0.52;0.52;;;;;;;13.87;75.85;96661.44;5002215;28;20050;-74
2023/04/23 01:32:07;;;;;;;0.45;0.45;;;;;;;13.87;76.35;96664.13;5011671;28;20120;-73
2023/04/23 01:34:38;;;;;;;0.50;0.50;;;;;;;13.82;76.80;96665.88;5001518;28;20089;-74
2023/04/23 01:37:06;;;;;;;0.60;0.60;;;;;;;13.78;76.80;96662.06;5000194;28;20053;-73
2023/04/23 01:39:35;;;;;;;0.70;0.70;;;;;;;13.75;77.22;96659.84;5000802;28;20089;-73
2023/04/23 01:42:05;;;;;;;0.08;0.08;;;;;;;13.62;77.43;96660.09;5000729;28;22046;-73
2023/04/23 01:44:33;;;;;;;0.50;0.50;;;;;;;13.57;77.63;96663.50;5005911;28;20107;-74
2023/04/23 01:47:00;;;;;;;0.50;0.50;;;;;;;13.52;77.45;96653.47;5008447;28;20107;-74
2023/04/23 01:49:28;;;;;;;0.57;0.57;;;;;;;13.57;77.04;96664.31;5010687;28;20061;-74
2023/04/23 01:51:55;;;;;;;0.55;0.55;;;;;;;13.53;76.81;96654.28;5010561;28;20045;-74
2023/04/23 01:54:23;;;;;;;0.60;0.60;;;;;;;13.49;76.34;96656.66;5011798;28;20494;-74
2023/04/23 01:56:53;;;;;;;0.60;0.60;;;;;;;13.54;75.77;96658.59;4998373;28;20104;-73
2023/04/23 01:59:21;;;;;;;0.50;0.50;;;;;;;13.54;76.28;96662.09;5014533;28;20416;-74
2023/04/23 02:01:50;;;;;;;0.43;0.43;;;;;;;13.44;76.66;96663.75;5002205;28;20049;-73
2023/04/23 02:04:18;;;;;;;0.60;0.60;;;;;;;13.36;77.13;96664.94;5009800;28;20045;-74
2023/04/23 02:06:48;;;;;;;0.15;0.15;;;;;;;13.32;76.94;96670.97;5001290;28;20627;-72
2023/04/23 02:09:16;;;;;;;0.57;0.57;;;;;;;13.42;76.85;96671.22;5004557;28;20054;-72
2023/04/23 02:11:43;;;;;;;0.57;0.57;;;;;;;13.35;77.30;96665.16;5009784;28;20055;-74
2023/04/23 02:14:13;;;;;;;0.52;0.52;;;;;;;13.29;77.59;96676.84;5010715;28;20050;-72
2023/04/23 02:16:40;;;;;;;0.47;0.47;;;;;;;13.28;77.40;96669.84;5007433;28;20046;-74
2023/04/23 02:19:08;;;;;;;0.57;0.57;;;;;;;13.29;77.56;96664.22;5002717;28;20103;-73
2023/04/23 02:21:35;;;;;;;0.50;0.50;;;;;;;13.24;76.90;96664.13;5007498;28;20050;-75
2023/04/23 02:24:04;;;;;;;0.65;0.65;;;;;;;13.27;77.44;96657.50;5008601;28;20120;-73
2023/04/23 02:26:31;;;;;;;0.43;0.43;;;;;;;13.30;76.86;96654.31;5000718;28;20042;-72
2023/04/23 02:28:59;;;;;;;0.68;0.68;;;;;;;13.21;77.78;96648.50;5003520;28;20046;-74
2023/04/23 02:31:28;;;;;;;0.50;0.50;;;;;;;13.25;77.80;96652.34;5005663;28;20564;-74
2023/04/23 02:33:55;;;;;;;0.60;0.60;;;;;;;13.34;77.15;96653.63;5010354;28;20041;-74
2023/04/23 02:36:23;;;;;;;0.00;0.00;;;;;;;13.28;77.19;96653.75;5003211;28;20441;-73
2023/04/23 02:38:51;;;;;;;0.50;0.50;;;;;;;13.26;77.68;96661.22;5008759;28;20406;-73
2023/04/23 02:41:18;;;;;;;0.68;0.68;;;;;;;13.16;78.07;96664.47;5003074;28;20043;-73
2023/04/23 02:43:45;;;;;;;0.55;0.55;;;;;;;13.16;78.06;96664.47;5007156;28;20058;-73
2023/04/23 02:46:13;;;;;;;0.57;0.57;;;;;;;13.10;78.30;96660.81;5001060;28;20046;-73
2023/04/23 02:48:42;;;;;;;0.52;0.52;;;;;;;12.90;79.51;96672.94;5010069;28;20042;-73
2023/04/23 02:51:11;;;;;;;0.63;0.63;;;;;;;12.92;79.76;96665.50;5008566;28;20040;-73
2023/04/23 02:53:39;;;;;;;1.08;1.08;;;;;;;12.87;80.01;96669.66;5008279;28;20169;-74
2023/04/23 02:56:07;;;;;;;0.40;0.40;;;;;;;12.87;79.65;96664.31;5003794;28;20128;-74
2023/04/23 02:58:35;;;;;;;0.50;0.50;;;;;;;12.86;80.03;96677.97;5009935;28;20050;-74
2023/04/23 03:01:04;;;;;;;0.45;0.45;;;;;;;12.82;79.81;96677.59;5004441;28;20540;-74
2023/04/23 03:03:32;;;;;;;0.50;0.50;;;;;;;12.85;79.24;96671.78;5008086;28;20524;-74
2023/04/23 03:06:05;;;;;;;0.50;0.50;;;;;;;12.87;79.50;96667.00;5004124;28;20065;-73
2023/04/23 03:08:33;;;;;;;0.55;0.55;;;;;;;13.01;78.70;96672.94;5009932;28;20045;-74
2023/04/23 03:11:00;;;;;;;0.43;0.43;;;;;;;12.84;79.76;96670.16;5010754;28;20041;-74
2023/04/23 03:13:28;;;;;;;0.50;0.50;;;;;;;12.85;79.57;96671.78;5006743;28;20061;-73
2023/04/23 03:15:55;;;;;;;0.30;0.30;;;;;;;12.85;79.34;96662.94;5010256;28;20096;-73
2023/04/23 03:18:23;;;;;;;0.63;0.63;;;;;;;12.84;79.47;96658.63;5009926;28;20048;-73
2023/04/23 03:20:53;;;;;;;0.57;0.57;;;;;;;12.76;79.42;96667.00;5009720;28;20088;-73
2023/04/23 03:23:22;;;;;;;0.47;0.47;;;;;;;12.84;78.98;96672.84;5000307;28;20042;-73
2023/04/23 03:25:50;;;;;;;0.43;0.43;;;;;;;12.84;78.96;96672.84;5007747;28;20659;-73
2023/04/23 03:28:17;;;;;;;0.57;0.57;;;;;;;12.82;78.77;96674.91;5011054;28;20505;-73
2023/04/23 03:30:45;;;;;;;0.40;0.40;;;;;;;12.82;78.98;96677.59;5009434;28;20042;-73
2023/04/23 03:33:13;;;;;;;0.70;0.70;;;;;;;12.75;78.74;96668.88;5004241;28;20513;-73
2023/04/23 03:35:40;;;;;;;0.70;0.70;;;;;;;12.78;78.15;96681.78;5008047;28;20042;-73
2023/04/23 03:38:15;;;;;;;0.50;0.50;;;;;;;12.82;76.75;96674.09;5001777;28;20037;-73
2023/04/23 03:40:44;;;;;;;0.60;0.60;;;;;;;12.85;76.14;96668.28;5008245;28;20056;-74
2023/04/23 03:43:12;;;;;;;0.50;0.50;;;;;;;12.96;74.44;96666.66;5005260;28;20050;-74
2023/04/23 03:46:15;;;;;;;0.43;0.43;;;;;;;13.00;74.25;96668.63;5000485;28;20137;-73
2023/04/23 03:48:42;;;;;;;0.70;0.70;;;;;;;13.11;73.96;96678.53;5007648;28;20042;-74
2023/04/23 03:51:17;;;;;;;0.47;0.47;;;;;;;13.04;73.93;96680.53;5004053;28;20481;-74
2023/04/23 03:53:48;;;;;;;0.70;0.70;;;;;;;13.09;73.84;96677.13;5009317;28;20501;-74
2023/04/23 03:56:35;;;;;;;0.60;0.60;;;;;;;13.11;73.76;96670.50;5002839;28;20069;-74
2023/04/23 03:59:23;;;;;;;0.60;0.60;;;;;;;13.19;73.39;96669.34;4997140;28;20057;-75
2023/04/23 04:01:54;;;;;;;0.50;0.50;;;;;;;13.11;73.50;96675.03;5002026;28;20539;-75
2023/04/23 04:04:21;;;;;;;0.50;0.50;;;;;;;13.05;74.09;96670.63;5006200;28;20046;-73
2023/04/23 04:06:50;;;;;;;0.43;0.43;;;;;;;12.99;74.31;96669.69;4997027;28;20046;-73
2023/04/23 04:09:17;;;;;;;0.50;0.50;;;;;;;13.00;74.09;96676.66;5008291;28;20104;-73
2023/04/23 04:11:46;;;;;;;0.60;0.60;;;;;;;13.04;74.27;96677.03;5003244;28;20084;-73
2023/04/23 04:14:15;;;;;;;0.40;0.40;;;;;;;13.15;73.98;96670.88;5006308;28;20113;-73
2023/04/23 04:16:43;;;;;;;0.55;0.55;;;;;;;13.20;73.89;96679.03;5003801;28;20054;-73
2023/04/23 04:19:10;;;;;;;0.10;0.10;;;;;;;13.08;74.15;96672.84;5009789;28;20555;-73
2023/04/23 04:21:38;;;;;;;0.50;0.50;;;;;;;13.04;74.29;96688.56;5011516;28;20074;-73
2023/04/23 04:24:06;;;;;;;0.68;0.68;;;;;;;12.99;74.89;96688.44;5010645;28;20630;-73
2023/04/23 04:26:33;;;;;;;0.52;0.52;;;;;;;12.88;75.39;96683.88;5013442;28;20038;-73
2023/04/23 04:29:03;;;;;;;0.10;0.10;;;;;;;12.96;74.98;96688.09;5009539;28;20459;-73
2023/04/23 04:31:31;;;;;;;0.60;0.60;;;;;;;12.94;74.80;96690.19;5012519;28;20042;-73
2023/04/23 04:33:58;;;;;;;0.85;0.85;;;;;;;12.85;75.34;96690.53;5012863;28;20052;-73
2023/04/23 04:36:27;;;;;;;0.65;0.65;;;;;;;12.91;75.26;96694.13;5004481;28;20046;-73
2023/04/23 04:38:57;;;;;;;0.70;0.70;;;;;;;12.91;75.23;96701.34;5013832;28;20042;-73
2023/04/23 04:41:26;;;;;;;0.70;0.70;;;;;;;12.83;75.74;96705.19;5007173;28;20514;-73
2023/04/23 04:43:54;;;;;;;0.50;0.50;;;;;;;12.83;75.71;96706.00;5003568;28;20069;-73
2023/04/23 04:46:24;;;;;;;0.52;0.52;;;;;;;12.85;75.55;96714.63;5006766;28;20050;-73
2023/04/23 04:48:52;;;;;;;0.50;0.50;;;;;;;12.88;75.49;96703.44;5003362;28;20072;-73
2023/04/23 04:51:20;;;;;;;0.60;0.60;;;;;;;12.81;75.36;96713.44;5010040;28;20445;-73
2023/04/23 04:53:47;;;;;;;0.40;0.40;;;;;;;12.82;75.52;96712.41;5013534;28;20050;-73
2023/04/23 04:56:15;;;;;;;1.08;1.08;;;;;;;12.82;76.00;96719.63;5009440;28;20100;-73
2023/04/23 04:58:42;;;;;;;0.60;0.60;;;;;;;12.83;75.62;96721.25;5007793;28;20054;-72
2023/04/23 05:01:12;;;;;;;0.57;0.57;;;;;;;12.85;75.34;96720.00;5009594;28;20049;-73
2023/04/23 05:03:43;;;;;;;0.45;0.45;;;;;;;12.86;75.36;96724.31;5013745;28;20045;-73
2023/04/23 05:06:11;;;;;;;0.10;0.10;;;;;;;12.80;75.72;96719.84;5011685;28;20459;-73
2023/04/23 05:08:38;;;;;;;0.55;0.55;;;;;;;12.93;75.18;96728.72;5011899;28;20092;-73
2023/04/23 05:11:06;;;;;;;0.60;0.60;;;;;;;12.81;75.79;96726.84;5010700;28;20088;-73
2023/04/23 05:13:33;;;;;;;0.50;0.50;;;;;;;12.80;75.82;96733.25;5012285;28;20045;-73
2023/04/23 05:16:01;;;;;;;0.63;0.63;;;;;;;12.89;75.91;96733.72;5000297;28;20449;-73
2023/04/23 05:18:29;;;;;;;0.60;0.60;;;;;;;12.85;75.94;96741.41;5007191;28;20042;-73
2023/04/23 05:20:58;;;;;;;0.45;0.45;;;;;;;12.90;75.64;96743.38;5006237;28;20053;-73
2023/04/23 05:23:25;;;;;;;0.70;0.70;;;;;;;12.84;75.94;96744.31;5001413;28;20097;-72
2023/04/23 05:25:54;;;;;;;0.73;0.73;;;;;;;12.77;76.56;96752.44;5007927;28;20567;-73
2023/04/23 05:28:22;;;;;;;0.50;0.50;;;;;;;12.71;77.05;96745.34;5010531;28;20066;-73
2023/04/23 05:30:50;;;;;;;0.10;0.10;;;;;;;12.73;77.72;96756.63;5007739;28;20416;-73
2023/04/23 05:33:18;;;;;;;0.60;0.60;;;;;;;12.57;78.63;96753.78;5011077;28;20046;-72
2023/04/23 05:35:46;;;;;;;0.17;0.17;;;;;;;12.56;78.94;96744.13;5014619;28;20433;-73
2023/04/23 05:38:14;;;;;;;0.55;0.55;;;;;;;12.55;79.28;96750.53;5008456;28;20046;-73
2023/04/23 05:40:42;;;;;;;0.57;0.57;;;;;;;12.47;79.98;96760.50;5012604;28;20041;-73
2023/04/23 05:43:10;;;;;;;0.50;0.50;;;;;;;12.48;80.58;96754.09;5011860;28;20046;-73
2023/04/23 05:45:38;;;;;;;0.75;0.75;;;;;;;12.46;80.72;96758.84;5010139;28;20118;-73
2023/04/23 05:48:05;;;;;;;0.45;0.45;;;;;;;12.47;80.90;96757.00;5010811;28;20088;-73
2023/04/23 05:50:33;;;;;;;0.57;0.57;;;;;;;12.55;81.10;96758.56;5010949;28;20133;-73
2023/04/23 05:53:00;;;;;;;0.15;0.15;;;;;;;12.61;80.54;96747.75;5013017;28;20401;-73
2023/04/23 05:55:29;;;;;;;0.63;0.63;;;;;;;12.64;80.35;96747.31;5012535;28;20042;-73
2023/04/23 05:57:57;;;;;;;0.93;0.93;;;;;;;12.61;80.64;96754.97;5012831;28;20108;-75
2023/04/23 06:00:24;;;;;;;0.10;0.10;;;;;;;12.61;80.71;96753.09;5010915;28;20397;-75
2023/04/23 06:02:52;;;;;;;0.60;0.60;;;;;;;12.62;80.48;96748.56;5012653;28;20121;-73
2023/04/23 06:05:20;;;;;;;1.08;1.08;;;;;;;12.69;80.06;96755.44;5005807;28;20074;-73
2023/04/23 06:07:48;;;;;;;0.68;0.68;;;;;;;12.68;79.66;96751.13;5006986;28;20041;-73
2023/04/23 06:10:15;;;;;;;0.60;0.60;;;;;;;12.74;79.57;96755.59;5009265;28;20099;-73
2023/04/23 06:12:44;;;;;;;0.57;0.57;;;;;;;12.72;79.74;96755.00;5008157;28;20096;-73
2023/04/23 06:15:12;;;;;;;0.75;0.75;;;;;;;12.80;79.75;96759.22;5008753;28;20078;-73
2023/04/23 06:17:40;;;;;;;0.60;0.60;;;;;;;12.75;79.47;96759.09;5007755;28;20045;-73
2023/04/23 06:20:10;;;;;;;0.20;0.20;;;;;;;12.70;80.02;96765.13;5009262;28;20405;-72
2023/04/23 06:22:38;;;;;;;0.82;0.82;;;;;;;12.82;79.36;96763.28;5007680;28;20030;-73
2023/04/23 06:25:06;;;;;;;0.52;0.52;;;;;;;12.74;79.31;96762.81;5008727;28;20123;-73
2023/04/23 06:27:33;;;;;;;1.27;1.27;;;;;;;12.70;79.75;96762.44;5007899;28;20041;-73
2023/04/23 06:30:11;;;;;;;0.43;0.43;;;;;;;12.73;79.75;96767.34;5003598;28;20344;-73
2023/04/23 06:32:38;;;;;;;0.60;0.60;;;;;;;12.74;79.93;96763.63;5004820;28;20501;-74
2023/04/23 06:35:07;;;;;;;0.47;0.47;;;;;;;12.77;79.59;96773.06;5000398;28;20061;-73
2023/04/23 06:37:35;;;;;;;0.70;0.70;;;;;;;12.79;79.92;96763.75;5004049;28;20037;-73
2023/04/23 06:40:03;;;;;;;0.50;0.50;;;;;;;12.78;79.83;96767.47;5009533;28;20037;-73
2023/04/23 06:42:30;;;;;;;0.20;0.20;;;;;;;12.78;79.84;96770.13;5009204;28;20464;-73
2023/04/23 06:45:14;;;;;;;0.70;0.70;;;;;;;12.77;79.84;96765.81;5007350;28;20187;-74
2023/04/23 06:47:41;;;;;;;0.68;0.68;;;;;;;12.85;79.66;96772.75;5010453;28;20088;-74
2023/04/23 06:50:09;;;;;;;0.52;0.52;;;;;;;12.98;79.03;96761.00;5006632;28;20121;-73
2023/04/23 06:52:37;;;;;;;0.73;0.73;;;;;;;12.92;78.98;96770.75;5010757;28;20104;-73
2023/04/23 06:55:05;;;;;;;0.55;0.55;;;;;;;13.00;78.61;96775.78;5011015;28;20045;-74
2023/04/23 06:57:33;;;;;;;0.68;0.68;;;;;;;12.99;78.65;96765.28;5008782;28;20104;-73
2023/04/23 07:00:00;;;;;;;0.88;0.88;;;;;;;12.99;78.67;96767.97;5010210;28;20038;-73
2023/04/23 07:02:35;;;;;;;0.63;0.63;;;;;;;12.97;79.08;96773.59;5007904;28;20045;-73
2023/04/23 07:05:04;;;;;;;0.60;0.60;;;;;;;12.96;79.11;96771.13;5006559;28;20497;-73
2023/04/23 07:07:32;;;;;;;0.60;0.60;;;;;;;12.91;79.43;96771.81;5009086;28;20513;-74
2023/04/23 07:09:59;;;;;;;0.60;0.60;;;;;;;12.87;80.11;96779.47;5011020;28;20045;-73
2023/04/23 07:12:27;;;;;;;0.10;0.10;;;;;;;12.81;79.95;96775.03;5007857;28;20417;-73
2023/04/23 07:14:55;;;;;;;0.70;0.70;;;;;;;12.83;80.19;96781.00;5006425;28;20069;-73
2023/04/23 07:17:22;;;;;;;0.75;0.75;;;;;;;12.83;80.26;96781.00;5011170;28;20142;-73
2023/04/23 07:19:51;;;;;;;0.60;0.60;;;;;;;12.81;80.79;96776.91;5005168;28;20494;-73
2023/04/23 07:22:19;;;;;;;0.55;0.55;;;;;;;12.80;81.18;96783.31;5002332;28;20517;-73
2023/04/23 07:24:46;;;;;;;0.52;0.52;;;;;;;12.79;81.38;96776.31;5071602;22;20044;-72
2023/04/23 07:27:14;;;;;;;0.70;0.70;;;;;;;12.79;81.32;96779.81;5045261;28;20521;-69
2023/04/23 07:29:41;;;;;;;0.85;0.85;;;;;;;12.81;81.10;96777.72;5053726;28;20049;-70
2023/04/23 07:32:09;;;;;;;0.10;0.10;;;;;;;12.82;81.02;96776.69;5051918;28;20480;-70
2023/04/23 07:34:36;;;;;;;0.60;0.60;;;;;;;12.82;80.96;96779.38;5054775;28;20480;-69
2023/04/23 07:37:06;;;;;;;0.50;0.50;;;;;;;12.80;81.00;96783.31;5048946;28;20043;-70
2023/04/23 07:39:34;;;;;;;0.70;0.70;;;;;;;12.80;80.84;96789.47;5038726;28;20038;-69
2023/04/23 07:42:02;;;;;;;0.45;0.45;;;;;;;12.82;80.90;96786.56;5044734;28;20072;-69
2023/04/23 07:44:29;;;;;;;0.40;0.40;;;;;;;12.85;80.26;96786.94;5039620;28;20037;-69
2023/04/23 07:46:57;;;;;;;0.47;0.47;;;;;;;12.84;80.04;96787.16;5046073;28;20041;-69
2023/04/23 07:49:24;;;;;;;0.70;0.70;;;;;;;12.86;80.46;96791.25;5039961;28;20049;-69
2023/04/23 07:51:52;;;;;;;0.60;0.60;;;;;;;12.92;80.24;96783.34;5045821;28;20046;-69
2023/04/23 07:54:21;;;;;;;0.50;0.50;;;;;;;12.92;80.07;96789.50;5043875;28;20044;-69
2023/04/23 07:56:51;;;;;;;0.50;0.50;;;;;;;12.94;80.56;96784.75;5047500;28;20045;-69
2023/04/23 07:59:19;;;;;;;0.65;0.65;;;;;;;12.80;80.72;96786.81;5046927;28;20049;-70
2023/04/23 08:01:46;;;;;;;0.50;0.50;;;;;;;12.83;80.59;96789.03;5050409;28;20037;-72
2023/04/23 08:04:14;;;;;;;0.60;0.60;;;;;;;12.82;80.94;96794.63;5056539;28;20502;-70
2023/04/23 08:06:42;;;;;;;0.73;0.73;;;;;;;12.87;80.37;96781.38;5051326;28;20044;-69
2023/04/23 08:09:10;;;;;;;0.57;0.57;;;;;;;12.95;80.54;96782.88;5044019;28;20501;-70
2023/04/23 08:11:38;;;;;;;0.60;0.60;;;;;;;12.96;80.23;96779.16;5057866;28;20052;-69
2023/04/23 08:14:06;;;;;;;0.50;0.50;;;;;;;13.04;80.19;96797.59;5048677;28;20042;-69
2023/04/23 08:16:33;;;;;;;0.57;0.57;;;;;;;13.03;80.00;96796.75;5060044;28;20507;-69
2023/04/23 08:19:05;;;;;;;0.50;0.50;;;;;;;13.05;79.79;96792.00;5053000;28;20051;-69
2023/04/23 08:21:34;;;;;;;0.10;0.10;;;;;;;13.15;78.94;96792.28;5052288;28;20424;-69
2023/04/23 08:24:03;;;;;;;0.50;0.50;;;;;;;13.20;79.69;96794.25;5045220;28;20056;-70
2023/04/23 08:26:30;;;;;;;0.10;0.10;;;;;;;13.22;79.51;96794.84;5044720;28;20422;-70
2023/04/23 08:29:01;;;;;;;0.60;0.60;;;;;;;13.29;79.49;96790.19;5058817;28;20514;-71
2023/04/23 08:31:29;;;;;;;0.80;0.80;;;;;;;13.26;79.34;96793.34;5048342;28;20064;-69
2023/04/23 08:33:57;;;;;;;0.40;0.40;;;;;;;13.29;78.91;96795.53;5062942;28;20136;-69
2023/04/23 08:36:25;;;;;;;0.50;0.50;;;;;;;13.27;79.06;96796.84;5052690;28;20053;-73
2023/04/23 08:38:53;;;;;;;1.15;1.15;;;;;;;13.27;79.10;96804.88;5068384;28;20036;-69
2023/04/23 08:41:23;;;;;;;0.60;0.60;;;;;;;13.30;79.26;96797.19;5050961;28;20569;-70
2023/04/23 08:43:53;;;;;;;0.70;0.70;;;;;;;13.24;78.06;96803.47;5051413;28;20048;-70
2023/04/23 08:46:22;;;;;;;0.50;0.50;;;;;;;13.06;81.22;96809.72;5046156;28;20037;-70
2023/04/23 08:48:52;;;;;;;0.47;0.47;;;;;;;12.86;83.84;96811.88;5045703;28;20044;-69
2023/04/23 08:51:21;;;;;;;0.77;0.77;;;;;;;12.82;83.94;96816.84;5050670;28;20057;-69
2023/04/23 08:53:51;;;;;;;1.00;1.00;;;;;;;12.78;84.57;96810.31;5047618;28;20056;-70
2023/04/23 08:56:19;;;;;;;0.88;0.88;;;;;;;12.81;84.02;96819.75;5045647;28;20075;-69
2023/04/23 08:58:47;;;;;;;0.95;0.95;;;;;;;12.89;83.72;96816.75;5059276;28;20068;-70
2023/04/23 09:01:14;;;;;;;0.75;0.75;;;;;;;12.93;83.26;96811.75;5055139;28;20044;-69
2023/04/23 09:03:43;;;;;;;0.60;0.60;;;;;;;12.77;83.68;96824.75;5049246;28;20053;-69
2023/04/23 09:06:11;;;;;;;0.85;0.85;;;;;;;12.83;83.96;96825.72;5050942;28;20059;-70
2023/04/23 09:08:39;;;;;;;0.52;0.52;;;;;;;12.86;83.24;96822.59;5050269;28;20053;-70
2023/04/23 09:11:07;;;;;;;0.70;0.70;;;;;;;12.84;83.17;96824.66;5058365;28;20041;-69
2023/04/23 09:13:35;;;;;;;0.50;0.50;;;;;;;12.88;82.98;96829.31;5042936;28;20071;-70
2023/04/23 09:16:04;;;;;;;0.70;0.70;;;;;;;12.95;82.65;96821.22;5050190;28;20033;-69
2023/04/23 09:18:32;;;;;;;0.40;0.40;;;;;;;12.96;81.78;96808.63;5049748;28;20496;-69
2023/04/23 09:21:02;;;;;;;0.52;0.52;;;;;;;12.90;81.09;96809.53;5055247;28;20045;-69
2023/04/23 09:23:30;;;;;;;0.65;0.65;;;;;;;12.89;81.98;96811.38;5045613;28;20092;-70
2023/04/23 09:25:58;;;;;;;0.50;0.50;;;;;;;12.96;82.08;96809.44;5054583;28;20060;-70
2023/04/23 09:28:34;;;;;;;0.52;0.52;;;;;;;13.02;81.25;96818.41;5049102;28;20052;-69
2023/04/23 09:31:02;;;;;;;0.43;0.43;;;;;;;13.09;81.11;96813.78;5053346;28;20488;-73
2023/04/23 09:33:31;;;;;;;0.50;0.50;;;;;;;13.18;81.34;96799.84;5044749;28;20048;-72
2023/04/23 09:36:00;;;;;;;0.60;0.60;;;;;;;13.28;80.50;96803.84;5046966;28;20041;-72
2023/04/23 09:38:28;;;;;;;0.10;0.10;;;;;;;13.41;79.44;96799.06;5048489;28;20443;-71
2023/04/23 09:40:56;;;;;;;0.68;0.68;;;;;;;13.42;78.44;96797.19;5047457;28;20044;-70
2023/04/23 09:43:23;;;;;;;0.70;0.70;;;;;;;13.51;78.58;96799.28;5050656;28;20041;-71
2023/04/23 09:45:51;;;;;;;0.52;0.52;;;;;;;13.80;77.72;96794.88;5043966;28;20036;-71
2023/04/23 09:48:20;;;;;;;0.60;0.60;;;;;;;14.12;73.44;96792.59;5059776;28;20051;-73
2023/04/23 09:50:48;;;;;;;0.50;0.50;;;;;;;14.52;70.72;96783.78;5057167;28;20040;-71
2023/04/23 09:53:19;;;;;;;0.70;0.70;;;;;;;14.75;69.14;96783.66;5051931;28;20045;-71
2023/04/23 09:55:47;;;;;;;0.40;0.40;;;;;;;15.09;66.53;96773.78;5055206;28;20064;-71
2023/04/23 09:58:15;;;;;;;0.50;0.50;;;;;;;15.24;64.10;96776.72;5052190;28;20049;-71
2023/04/23 10:00:43;;;;;;;0.60;0.60;;;;;;;15.36;63.63;96776.66;5055295;28;20049;-71
2023/04/23 10:03:10;;;;;;;0.47;0.47;;;;;;;15.55;64.99;96783.44;5046157;28;20032;-71
2023/04/23 10:05:40;;;;;;;0.40;0.40;;;;;;;15.66;65.15;96779.03;5054998;28;20048;-72
2023/04/23 10:08:12;;;;;;;0.50;0.50;;;;;;;15.45;65.47;96783.25;5056526;28;20130;-71
2023/04/23 10:10:41;;;;;;;0.60;0.60;;;;;;;15.30;67.28;96778.44;5042905;28;20567;-71
2023/04/23 10:13:29;;;;;;;0.55;0.55;;;;;;;15.01;68.15;96779.56;5048262;28;20048;-70
2023/04/23 10:15:56;;;;;;;0.60;0.60;;;;;;;14.91;68.47;96774.81;5048110;28;20048;-71
2023/04/23 10:18:41;;;;;;;0.50;0.50;;;;;;;14.99;68.92;96773.59;5057788;28;20447;-71
2023/04/23 10:21:08;;;;;;;0.47;0.47;;;;;;;14.92;67.42;96773.78;5053028;28;20044;-72
2023/04/23 10:23:36;;;;;;;0.32;0.32;;;;;;;14.90;67.80;96758.94;5052150;28;20049;-72
2023/04/23 10:26:05;;;;;;;0.50;0.50;;;;;;;14.97;66.48;96763.09;5040923;28;20034;-71
2023/04/23 10:28:35;;;;;;;0.57;0.57;;;;;;;15.31;64.91;96760.41;5050550;28;20090;-71
2023/04/23 10:31:03;;;;;;;0.50;0.50;;;;;;;15.48;63.31;96755.03;5046101;28;20099;-71
2023/04/23 10:33:31;;;;;;;0.50;0.50;;;;;;;15.57;63.57;96758.97;5049905;28;20052;-71
2023/04/23 10:36:09;;;;;;;0.40;0.40;;;;;;;15.78;61.94;96748.22;5043171;28;20116;-70
2023/04/23 10:38:37;;;;;;;0.55;0.55;;;;;;;16.01;61.05;96751.75;5048282;28;20570;-71
2023/04/23 10:41:22;;;;;;;0.50;0.50;;;;;;;16.37;60.38;96753.84;5044493;28;20058;-71
2023/04/23 10:43:50;;;;;;;0.40;0.40;;;;;;;16.36;59.79;96757.59;5050142;28;20530;-71
2023/04/23 10:46:30;;;;;;;0.50;0.50;;;;;;;16.27;59.85;96751.03;5052790;28;20114;-71
2023/04/23 10:49:08;;;;;;;0.50;0.50;;;;;;;16.19;61.13;96745.28;5046454;28;20128;-71
2023/04/23 10:51:36;;;;;;;0.50;0.50;;;;;;;16.09;60.15;96757.53;5046521;28;20086;-71
2023/04/23 10:54:08;;;;;;;0.43;0.43;;;;;;;16.12;60.64;96757.03;5048656;28;20041;-71
2023/04/23 10:56:38;;;;;;;0.40;0.40;;;;;;;16.35;60.75;96755.16;5048384;28;20123;-71
2023/04/23 10:59:07;;;;;;;0.30;0.30;;;;;;;16.66;59.41;96756.31;5050399;28;20048;-71
2023/04/23 11:01:35;;;;;;;0.10;0.10;;;;;;;16.72;57.87;96747.22;5046604;28;20404;-71
2023/04/23 11:04:19;;;;;;;0.25;0.25;;;;;;;16.40;57.07;96755.22;5050353;28;20090;-71
2023/04/23 11:06:55;;;;;;;0.50;0.50;;;;;;;16.00;57.72;96750.94;5050323;28;20032;-71
2023/04/23 11:09:37;;;;;;;0.40;0.40;;;;;;;15.81;58.56;96749.63;5049577;28;20110;-71
2023/04/23 11:12:09;;;;;;;0.77;0.77;;;;;;;15.57;58.11;96746.34;5050404;28;20037;-71
2023/04/23 11:14:42;;;;;;;0.43;0.43;;;;;;;15.59;58.85;96741.50;5043927;28;20050;-71
2023/04/23 11:17:12;;;;;;;0.52;0.52;;;;;;;16.05;57.79;96744.81;5052868;28;20040;-72
2023/04/23 11:19:40;;;;;;;0.60;0.60;;;;;;;16.63;56.17;96748.75;5052532;28;20029;-72
2023/04/23 11:22:13;;;;;;;0.63;0.63;;;;;;;17.22;53.44;96734.22;5049559;28;20043;-70
2023/04/23 11:24:43;;;;;;;0.52;0.52;;;;;;;17.49;53.03;96736.81;5044913;28;20045;-71
2023/04/23 11:27:13;;;;;;;0.30;0.30;;;;;;;17.68;51.62;96737.25;5052025;28;20051;-71
2023/04/23 11:29:42;;;;;;;0.50;0.50;;;;;;;17.67;51.58;96729.41;5051388;28;20049;-71
2023/04/23 11:32:12;;;;;;;0.50;0.50;;;;;;;18.01;50.59;96727.16;5046722;28;20041;-71
2023/04/23 11:34:42;;;;;;;0.40;0.40;;;;;;;18.10;49.74;96722.88;5049270;28;20099;-70
2023/04/23 11:37:10;;;;;;;0.43;0.43;;;;;;;18.00;50.27;96718.25;5061078;28;20534;-71
2023/04/23 11:39:39;;;;;;;0.47;0.47;;;;;;;18.03;50.75;96716.91;5051870;28;20041;-71
2023/04/23 11:42:09;;;;;;;0.40;0.40;;;;;;;17.34;51.44;96717.81;5045758;28;20045;-71